Time;durP1;ratioP1;P1;durP2;ratioP2;P2;SDS_P1;SDS_P2;PMS_P1;PMS_P2;Temp;Humidity;BMP_temperature;BMP_pressure;BME280_temperature;BME280_humidity;BME280_pressure;Samples;Min_cycle;Max_cycle;Signal;HPM_P1;HPM_P2
2023/04/23 00:02:16;;;;;;;;;;;;;;;13.25;94.46;99768.69;7361299;19;20333;-60
2023/04/23 00:04:49;;;;;;;;;;;;;;;13.29;94.60;99762.00;7359763;19;20378;-62
2023/04/23 00:07:17;;;;;;;;;;;;;;;13.33;94.64;99760.59;7359695;19;19923;-61
2023/04/23 00:09:45;;;;;;;;;;;;;;;13.34;94.42;99764.06;7359353;19;19930;-61
2023/04/23 00:12:12;;;;;;;;;;;;;;;13.33;94.85;99757.13;7363050;19;19911;-61
2023/04/23 00:14:39;;;;;;;;;;;;;;;13.34;94.86;99750.84;7358183;19;19922;-60
2023/04/23 00:17:06;;;;;;;;;;;;;;;13.35;95.36;99749.84;7360356;19;20794;-62
2023/04/23 00:19:33;;;;;;;;;;;;;;;13.36;95.68;99746.97;7358287;19;19964;-60
2023/04/23 00:22:00;;;;;;;;;;;;;;;13.36;95.96;99743.53;7361816;19;20570;-60
2023/04/23 00:24:27;;;;;;;;;;;;;;;13.36;96.09;99741.69;7358791;19;19911;-62
2023/04/23 00:26:54;;;;;;;;;;;;;;;13.37;96.02;99753.06;7363056;19;19941;-66
2023/04/23 00:29:20;;;;;;;;;;;;;;;13.34;96.13;99741.09;7355329;19;19922;-61
2023/04/23 00:31:47;;;;;;;;;;;;;;;13.36;96.75;99743.53;7358963;19;21136;-60
2023/04/23 00:34:14;;;;;;;;;;;;;;;13.38;97.22;99742.31;7358998;19;19925;-61
2023/04/23 00:36:41;;;;;;;;;;;;;;;13.38;97.34;99734.38;7360316;19;19922;-60
2023/04/23 00:39:10;;;;;;;;;;;;;;;13.36;97.41;99744.34;7360843;19;20265;-61
2023/04/23 00:41:36;;;;;;;;;;;;;;;13.37;97.33;99738.03;7360888;19;19915;-62
2023/04/23 00:44:03;;;;;;;;;;;;;;;13.41;97.30;99747.19;7356821;19;19975;-61
2023/04/23 00:46:31;;;;;;;;;;;;;;;13.42;97.24;99740.91;7359368;19;19919;-60
2023/04/23 00:48:59;;;;;;;;;;;;;;;13.42;97.06;99740.09;7359414;19;19938;-64
2023/04/23 00:51:26;;;;;;;;;;;;;;;13.40;97.05;99750.06;7358715;19;21049;-62
2023/04/23 00:53:54;;;;;;;;;;;;;;;13.42;97.56;99734.81;7361431;19;19926;-63
2023/04/23 00:56:22;;;;;;;;;;;;;;;13.41;97.78;99730.56;7359330;19;20725;-62
2023/04/23 00:58:50;;;;;;;;;;;;;;;13.43;97.53;99736.44;7358778;19;19915;-60
2023/04/23 01:01:19;;;;;;;;;;;;;;;13.39;97.26;99733.38;7357937;19;20249;-62
2023/04/23 01:03:48;;;;;;;;;;;;;;;13.42;97.41;99713.66;7361606;19;20538;-62
2023/04/23 01:06:15;;;;;;;;;;;;;;;13.40;96.92;99715.72;7357542;19;19918;-64
2023/04/23 01:08:43;;;;;;;;;;;;;;;13.37;96.52;99710.81;7359457;19;19929;-61
2023/04/23 01:11:13;;;;;;;;;;;;;;;13.38;96.35;99707.16;7355843;19;20157;-64
2023/04/23 01:13:41;;;;;;;;;;;;;;;13.38;96.07;99713.25;7359275;19;20349;-62
2023/04/23 01:16:08;;;;;;;;;;;;;;;13.36;95.96;99704.69;7352743;19;21977;-61
2023/04/23 01:18:36;;;;;;;;;;;;;;;13.37;95.75;99698.41;7359165;19;19958;-62
2023/04/23 01:21:04;;;;;;;;;;;;;;;13.36;95.42;99704.69;7358366;19;19923;-64
2023/04/23 01:23:32;;;;;;;;;;;;;;;13.36;95.48;99691.50;7359788;19;20415;-61
2023/04/23 01:26:02;;;;;;;;;;;;;;;13.34;94.96;99698.00;7357544;19;19915;-61
2023/04/23 01:28:29;;;;;;;;;;;;;;;13.33;94.76;99696.38;7362784;19;19937;-62
2023/04/23 01:30:57;;;;;;;;;;;;;;;13.34;94.59;99701.47;7357725;19;19918;-61
2023/04/23 01:33:25;;;;;;;;;;;;;;;13.36;94.23;99699.41;7356691;19;19956;-61
2023/04/23 01:35:53;;;;;;;;;;;;;;;13.36;93.61;99699.41;7357602;19;19919;-61
2023/04/23 01:38:21;;;;;;;;;;;;;;;13.40;93.89;99702.50;7359398;19;19918;-60
2023/04/23 01:40:48;;;;;;;;;;;;;;;13.38;93.38;99702.69;7359401;19;20367;-60
2023/04/23 01:43:16;;;;;;;;;;;;;;;13.36;93.45;99702.06;7358823;19;19926;-62
2023/04/23 01:45:43;;;;;;;;;;;;;;;13.35;93.51;99691.72;7352110;19;19930;-62
2023/04/23 01:48:10;;;;;;;;;;;;;;;13.33;94.47;99694.53;7359755;19;19922;-61
2023/04/23 01:50:38;;;;;;;;;;;;;;;13.35;94.97;99699.63;7360983;19;19929;-64
2023/04/23 01:53:05;;;;;;;;;;;;;;;13.34;95.09;99695.34;7358726;19;19923;-62
2023/04/23 01:55:33;;;;;;;;;;;;;;;13.32;95.24;99686.81;7358602;19;19925;-62
2023/04/23 01:58:00;;;;;;;;;;;;;;;13.35;96.00;99689.06;7356705;19;19922;-62
2023/04/23 02:00:27;;;;;;;;;;;;;;;13.36;96.23;99688.84;7357645;19;19922;-62
2023/04/23 02:02:56;;;;;;;;;;;;;;;13.33;95.93;99685.78;7365713;19;20485;-61
2023/04/23 02:05:24;;;;;;;;;;;;;;;13.33;96.01;99681.31;7365008;19;20276;-66
2023/04/23 02:07:51;;;;;;;;;;;;;;;13.32;96.12;99677.06;7359721;19;20018;-62
2023/04/23 02:10:19;;;;;;;;;;;;;;;13.28;95.89;99667.91;7365557;19;20274;-64
2023/04/23 02:12:46;;;;;;;;;;;;;;;13.24;95.95;99670.13;7367550;19;20009;-61
2023/04/23 02:15:14;;;;;;;;;;;;;;;13.23;96.06;99673.78;7366528;19;19923;-61
2023/04/23 02:17:41;;;;;;;;;;;;;;;13.21;95.38;99667.06;7365645;19;20582;-60
2023/04/23 02:20:10;;;;;;;;;;;;;;;13.21;94.99;99667.88;7367717;19;19922;-63
2023/04/23 02:22:38;;;;;;;;;;;;;;;13.23;94.66;99657.94;7364238;19;19998;-62
2023/04/23 02:25:07;;;;;;;;;;;;;;;13.24;93.47;99664.84;7361753;19;19927;-62
2023/04/23 02:27:34;;;;;;;;;;;;;;;13.23;93.25;99667.69;7365590;19;19923;-62
2023/04/23 02:30:02;;;;;;;;;;;;;;;13.23;93.35;99655.28;7360794;19;19945;-60
2023/04/23 02:32:29;;;;;;;;;;;;;;;13.29;94.25;99658.97;7364748;19;19922;-61
2023/04/23 02:34:58;;;;;;;;;;;;;;;13.28;94.03;99659.97;7359024;19;19940;-62
2023/04/23 02:37:25;;;;;;;;;;;;;;;13.27;93.60;99663.63;7363300;19;20507;-61
2023/04/23 02:39:53;;;;;;;;;;;;;;;13.24;92.42;99664.03;7364728;19;19933;-63
2023/04/23 02:42:20;;;;;;;;;;;;;;;13.24;93.41;99662.22;7367145;19;19939;-63
2023/04/23 02:44:46;;;;;;;;;;;;;;;13.24;93.32;99664.03;7359588;19;19931;-62
2023/04/23 02:47:13;;;;;;;;;;;;;;;13.21;92.70;99662.59;7369510;19;21023;-61
2023/04/23 02:49:41;;;;;;;;;;;;;;;13.22;92.70;99663.41;7369216;19;20341;-62
2023/04/23 02:52:08;;;;;;;;;;;;;;;13.21;92.79;99653.84;7368261;19;19919;-61
2023/04/23 02:54:36;;;;;;;;;;;;;;;13.22;92.67;99653.66;7369210;19;19918;-62
2023/04/23 02:57:03;;;;;;;;;;;;;;;13.20;92.20;99658.34;7368520;19;19926;-60
2023/04/23 02:59:30;;;;;;;;;;;;;;;13.22;92.72;99658.13;7367134;19;19986;-60
2023/04/23 03:01:58;;;;;;;;;;;;;;;13.17;92.00;99658.72;7364389;19;19919;-61
2023/04/23 03:04:25;;;;;;;;;;;;;;;13.16;91.78;99664.19;7365873;19;19911;-60
2023/04/23 03:06:52;;;;;;;;;;;;;;;13.13;91.70;99668.06;7366667;19;19923;-62
2023/04/23 03:09:19;;;;;;;;;;;;;;;13.12;90.93;99676.16;7364453;19;20272;-62
2023/04/23 03:11:46;;;;;;;;;;;;;;;13.13;90.84;99659.31;7366243;19;19941;-63
2023/04/23 03:14:16;;;;;;;;;;;;;;;13.15;90.82;99662.59;7361231;19;19915;-63
2023/04/23 03:16:43;;;;;;;;;;;;;;;13.16;90.89;99658.91;7362023;19;19930;-61
2023/04/23 03:19:10;;;;;;;;;;;;;;;13.16;90.09;99658.91;7365986;19;19919;-62
2023/04/23 03:21:37;;;;;;;;;;;;;;;13.14;89.58;99660.97;7367760;19;19918;-63
2023/04/23 03:24:04;;;;;;;;;;;;;;;13.10;88.91;99668.44;7364544;19;19923;-62
2023/04/23 03:26:31;;;;;;;;;;;;;;;13.08;88.83;99665.16;7365097;19;20023;-61
2023/04/23 03:28:58;;;;;;;;;;;;;;;13.12;89.34;99666.44;7368468;19;20490;-60
2023/04/23 03:31:25;;;;;;;;;;;;;;;13.14;88.65;99671.53;7366413;19;20284;-63
2023/04/23 03:33:52;;;;;;;;;;;;;;;13.13;88.38;99668.06;7363540;19;19914;-64
2023/04/23 03:36:20;;;;;;;;;;;;;;;13.13;87.59;99661.97;7367105;19;19948;-62
2023/04/23 03:38:47;;;;;;;;;;;;;;;13.13;87.35;99662.78;7364985;19;20596;-61
2023/04/23 03:41:14;;;;;;;;;;;;;;;13.12;87.29;99655.88;7367086;19;19998;-62
2023/04/23 03:43:41;;;;;;;;;;;;;;;13.14;87.75;99660.97;7362413;19;20401;-62
2023/04/23 03:46:08;;;;;;;;;;;;;;;13.13;86.84;99660.13;7362620;19;19947;-63
2023/04/23 03:48:35;;;;;;;;;;;;;;;13.14;86.61;99661.78;7364359;19;19922;-63
2023/04/23 03:51:02;;;;;;;;;;;;;;;13.16;86.78;99661.56;7366306;19;19922;-62
2023/04/23 03:53:29;;;;;;;;;;;;;;;13.18;87.45;99657.72;7363856;19;20615;-62
2023/04/23 03:55:56;;;;;;;;;;;;;;;13.18;87.15;99657.72;7361032;19;19930;-60
2023/04/23 03:58:23;;;;;;;;;;;;;;;13.16;86.36;99657.09;7360316;19;20333;-62
2023/04/23 04:00:51;;;;;;;;;;;;;;;13.15;86.54;99650.19;7361742;19;19986;-63
2023/04/23 04:03:18;;;;;;;;;;;;;;;13.16;86.46;99649.16;7366570;19;20518;-61
2023/04/23 04:05:45;;;;;;;;;;;;;;;13.17;87.18;99650.78;7363736;19;20397;-61
2023/04/23 04:08:13;;;;;;;;;;;;;;;13.19;87.77;99645.31;7368019;19;19914;-62
2023/04/23 04:10:40;;;;;;;;;;;;;;;13.19;87.57;99647.97;7365385;19;19962;-62
2023/04/23 04:13:07;;;;;;;;;;;;;;;13.18;87.49;99647.16;7363822;19;19922;-66
2023/04/23 04:15:34;;;;;;;;;;;;;;;13.19;88.39;99643.50;7357798;19;20113;-64
2023/04/23 04:18:01;;;;;;;;;;;;;;;13.18;87.44;99641.88;7362929;19;20593;-61
2023/04/23 04:20:30;;;;;;;;;;;;;;;13.18;87.52;99649.78;7365137;19;19919;-62
2023/04/23 04:22:57;;;;;;;;;;;;;;;13.16;87.84;99646.53;7363891;19;20256;-62
2023/04/23 04:25:27;;;;;;;;;;;;;;;13.16;88.02;99640.44;7361343;19;19994;-61
2023/04/23 04:27:54;;;;;;;;;;;;;;;13.15;88.76;99638.81;7363047;19;19927;-62
2023/04/23 04:30:21;;;;;;;;;;;;;;;13.15;88.72;99644.91;7357805;19;19927;-60
2023/04/23 04:32:49;;;;;;;;;;;;;;;13.14;88.78;99648.56;7366003;19;19926;-63
2023/04/23 04:35:16;;;;;;;;;;;;;;;13.09;88.35;99650.97;7366121;19;19922;-62
2023/04/23 04:37:43;;;;;;;;;;;;;;;13.07;89.24;99637.13;7365185;19;20011;-61
2023/04/23 04:40:11;;;;;;;;;;;;;;;13.07;88.85;99636.31;7363271;19;20026;-64
2023/04/23 04:42:38;;;;;;;;;;;;;;;13.03;88.39;99632.44;7363515;19;19927;-63
2023/04/23 04:45:07;;;;;;;;;;;;;;;13.01;87.95;99637.09;7360117;19;19923;-62
2023/04/23 04:47:35;;;;;;;;;;;;;;;12.96;87.75;99632.41;7365125;19;19950;-62
2023/04/23 04:50:02;;;;;;;;;;;;;;;12.99;87.89;99632.03;7364233;19;20305;-62
2023/04/23 04:52:29;;;;;;;;;;;;;;;13.01;88.09;99627.34;7364938;19;19923;-62
2023/04/23 04:54:57;;;;;;;;;;;;;;;13.02;87.40;99634.25;7359904;19;19907;-62
2023/04/23 04:57:24;;;;;;;;;;;;;;;13.02;87.25;99631.63;7362603;19;19982;-63
2023/04/23 04:59:51;;;;;;;;;;;;;;;12.99;86.54;99634.66;7360242;19;19919;-63
2023/04/23 05:02:20;;;;;;;;;;;;;;;12.99;87.20;99636.50;7365315;19;19922;-63
2023/04/23 05:04:47;;;;;;;;;;;;;;;13.02;87.48;99638.72;7362575;19;19921;-61
2023/04/23 05:07:14;;;;;;;;;;;;;;;13.00;86.74;99632.84;7360278;19;19986;-62
2023/04/23 05:09:42;;;;;;;;;;;;;;;12.99;85.95;99634.66;7362899;19;20277;-62
2023/04/23 05:12:11;;;;;;;;;;;;;;;12.98;86.92;99633.03;7364771;19;20409;-62
2023/04/23 05:14:38;;;;;;;;;;;;;;;13.00;87.15;99628.38;7360564;19;19922;-61
2023/04/23 05:17:05;;;;;;;;;;;;;;;13.00;86.14;99627.56;7363503;19;19922;-59
2023/04/23 05:19:33;;;;;;;;;;;;;;;13.02;86.17;99630.81;7360104;19;19917;-63
2023/04/23 05:22:02;;;;;;;;;;;;;;;13.01;86.39;99624.72;7361476;19;19919;-62
2023/04/23 05:24:29;;;;;;;;;;;;;;;13.00;85.88;99628.38;7361907;19;19919;-62
2023/04/23 05:26:56;;;;;;;;;;;;;;;12.99;85.83;99629.38;7362039;19;19927;-63
2023/04/23 05:29:23;;;;;;;;;;;;;;;12.99;85.70;99634.66;7357388;19;19928;-63
2023/04/23 05:31:50;;;;;;;;;;;;;;;13.00;85.32;99633.66;7362671;19;19911;-63
2023/04/23 05:34:18;;;;;;;;;;;;;;;13.02;84.67;99631.63;7362189;19;19939;-62
2023/04/23 05:36:46;;;;;;;;;;;;;;;13.07;85.49;99626.56;7360096;19;20015;-62
2023/04/23 05:39:14;;;;;;;;;;;;;;;13.06;84.18;99622.28;7359053;19;19926;-62
2023/04/23 05:41:42;;;;;;;;;;;;;;;13.10;85.21;99620.91;7361164;19;19923;-61
2023/04/23 05:44:10;;;;;;;;;;;;;;;13.11;84.83;99624.31;7357935;19;19927;-63
2023/04/23 05:46:37;;;;;;;;;;;;;;;13.12;84.86;99616.25;7359292;19;20420;-63
2023/04/23 05:49:05;;;;;;;;;;;;;;;13.16;85.18;99616.66;7362192;19;19923;-62
2023/04/23 05:51:34;;;;;;;;;;;;;;;13.14;84.24;99621.34;7360235;19;19911;-61
2023/04/23 05:54:02;;;;;;;;;;;;;;;13.14;84.41;99621.34;7362411;19;19919;-62
2023/04/23 05:56:29;;;;;;;;;;;;;;;13.15;84.26;99618.50;7358928;19;19986;-61
2023/04/23 05:58:56;;;;;;;;;;;;;;;13.19;84.17;99618.91;7359686;19;19919;-62
2023/04/23 06:01:24;;;;;;;;;;;;;;;13.21;84.93;99622.97;7361671;19;19919;-62
2023/04/23 06:03:51;;;;;;;;;;;;;;;13.20;84.11;99624.00;7360883;19;19937;-62
2023/04/23 06:06:19;;;;;;;;;;;;;;;13.25;85.08;99629.50;7360560;19;19917;-60
2023/04/23 06:08:46;;;;;;;;;;;;;;;13.26;84.24;99638.22;7360386;19;20766;-64
2023/04/23 06:11:13;;;;;;;;;;;;;;;13.25;83.59;99636.63;7359804;19;19918;-61
2023/04/23 06:13:41;;;;;;;;;;;;;;;13.20;83.07;99644.31;7363368;19;20924;-62
2023/04/23 06:16:10;;;;;;;;;;;;;;;13.18;83.85;99648.97;7361543;19;20242;-64
2023/04/23 06:18:38;;;;;;;;;;;;;;;13.20;83.99;99646.97;7359172;19;20408;-64
2023/04/23 06:21:05;;;;;;;;;;;;;;;13.18;83.45;99638.41;7361220;19;19926;-62
2023/04/23 06:23:33;;;;;;;;;;;;;;;13.19;82.87;99637.41;7362535;19;19930;-62
2023/04/23 06:26:03;;;;;;;;;;;;;;;13.20;82.55;99642.50;7363110;19;19949;-63
2023/04/23 06:28:30;;;;;;;;;;;;;;;13.22;82.87;99635.16;7361034;19;19919;-60
2023/04/23 06:30:58;;;;;;;;;;;;;;;13.21;82.02;99635.34;7357089;19;20011;-63
2023/04/23 06:33:26;;;;;;;;;;;;;;;13.23;82.63;99636.81;7359409;19;19919;-62
2023/04/23 06:35:54;;;;;;;;;;;;;;;13.31;83.48;99643.72;7358443;19;20447;-63
2023/04/23 06:38:21;;;;;;;;;;;;;;;13.35;82.71;99639.69;7360142;19;19949;-63
2023/04/23 06:40:49;;;;;;;;;;;;;;;13.37;81.97;99642.91;7360444;19;19915;-62
2023/04/23 06:43:16;;;;;;;;;;;;;;;13.39;81.71;99642.72;7363461;19;19926;-63
2023/04/23 06:45:43;;;;;;;;;;;;;;;13.42;81.60;99647.59;7358045;19;19923;-61
2023/04/23 06:48:11;;;;;;;;;;;;;;;13.41;80.75;99646.00;7367635;19;19922;-61
2023/04/23 06:50:39;;;;;;;;;;;;;;;13.40;81.10;99645.19;7365817;19;19929;-62
2023/04/23 06:53:07;;;;;;;;;;;;;;;13.42;80.86;99645.78;7365489;19;20368;-62
2023/04/23 06:55:35;;;;;;;;;;;;;;;13.49;81.66;99645.81;7366552;19;19922;-62
2023/04/23 06:58:05;;;;;;;;;;;;;;;13.53;81.33;99644.38;7366995;19;19941;-62
2023/04/23 07:00:33;;;;;;;;;;;;;;;13.54;80.38;99644.19;7361405;19;20482;-63
2023/04/23 07:03:03;;;;;;;;;;;;;;;13.70;81.70;99630.59;7369584;19;19922;-62
2023/04/23 07:05:31;;;;;;;;;;;;;;;14.24;79.76;99639.28;7366294;19;20475;-62
2023/04/23 07:07:58;;;;;;;;;;;;;;;14.60;77.33;99639.66;7362245;19;20537;-63
2023/04/23 07:10:26;;;;;;;;;;;;;;;14.71;77.21;99631.06;7362845;19;19925;-63
2023/04/23 07:12:54;;;;;;;;;;;;;;;14.63;75.35;99633.94;7366337;19;20289;-64
2023/04/23 07:15:22;;;;;;;;;;;;;;;14.53;76.49;99634.38;7357174;19;20023;-64
2023/04/23 07:17:49;;;;;;;;;;;;;;;14.46;75.75;99633.59;7366276;19;19925;-63
2023/04/23 07:20:20;;;;;;;;;;;;;;;14.39;76.28;99635.44;7365436;19;19946;-62
2023/04/23 07:22:48;;;;;;;;;;;;;;;14.35;76.88;99639.47;7364058;19;19915;-62
2023/04/23 07:25:21;;;;;;;;;;;;;;;14.32;76.33;99641.75;7369463;19;20323;-62
2023/04/23 07:27:49;;;;;;;;;;;;;;;14.29;76.84;99635.00;7367083;19;19943;-62
2023/04/23 07:30:17;;;;;;;;;;;;;;;14.37;77.12;99636.66;7363251;19;19919;-60
2023/04/23 07:32:49;;;;;;;;;;;;;;;14.43;76.67;99641.94;7367716;19;19914;-63
2023/04/23 07:35:17;;;;;;;;;;;;;;;14.50;76.50;99641.91;7366731;19;19915;-64
2023/04/23 07:37:45;;;;;;;;;;;;;;;14.48;75.25;99631.53;7364416;19;19917;-63
2023/04/23 07:40:13;;;;;;;;;;;;;;;14.47;76.12;99634.41;7367562;19;20038;-63
2023/04/23 07:42:41;;;;;;;;;;;;;;;14.48;75.83;99626.25;7366796;19;19915;-62
2023/04/23 07:45:12;;;;;;;;;;;;;;;14.49;74.74;99632.34;7361205;19;19926;-62
2023/04/23 07:47:40;;;;;;;;;;;;;;;14.51;75.66;99631.13;7362050;19;19931;-62
2023/04/23 07:50:11;;;;;;;;;;;;;;;14.55;75.19;99629.69;7363056;19;20336;-63
2023/04/23 07:52:41;;;;;;;;;;;;;;;14.61;74.54;99630.69;7363416;19;19927;-64
2023/04/23 07:55:09;;;;;;;;;;;;;;;14.61;74.64;99638.63;7360372;19;19922;-63
2023/04/23 07:57:37;;;;;;;;;;;;;;;14.58;73.64;99632.97;7367288;19;19915;-63
2023/04/23 08:00:10;;;;;;;;;;;;;;;14.57;74.31;99640.09;7361001;19;20494;-62
2023/04/23 08:02:40;;;;;;;;;;;;;;;14.54;73.93;99633.34;7367877;19;19918;-61
2023/04/23 08:05:08;;;;;;;;;;;;;;;14.51;74.61;99631.13;7360978;19;19937;-63
2023/04/23 08:07:36;;;;;;;;;;;;;;;14.50;74.42;99633.97;7364135;19;19919;-62
2023/04/23 08:10:06;;;;;;;;;;;;;;;14.50;74.03;99632.16;7365422;19;20856;-62
2023/04/23 08:12:43;;;;;;;;;;;;;;;14.43;74.07;99627.88;7365422;19;19923;-63
2023/04/23 08:15:14;;;;;;;;;;;;;;;14.39;73.85;99637.25;7359205;19;19938;-59
2023/04/23 08:17:52;;;;;;;;;;;;;;;14.42;74.41;99637.69;7362038;19;19955;-61
2023/04/23 08:20:24;;;;;;;;;;;;;;;14.43;74.20;99636.63;7362577;19;20321;-63
2023/04/23 08:22:58;;;;;;;;;;;;;;;14.40;73.87;99633.59;7362487;19;19930;-62
2023/04/23 08:25:40;;;;;;;;;;;;;;;14.39;73.98;99634.59;7362555;19;20606;-62
2023/04/23 08:28:19;;;;;;;;;;;;;;;14.36;73.43;99641.16;7364003;19;19933;-61
2023/04/23 08:31:01;;;;;;;;;;;;;;;14.37;73.90;99634.03;7355690;19;19939;-64
2023/04/23 08:33:48;;;;;;;;;;;;;;;14.41;73.32;99632.59;7361018;19;19922;-63
2023/04/23 08:36:21;;;;;;;;;;;;;;;14.42;73.25;99637.69;7364957;19;19948;-64
2023/04/23 08:38:52;;;;;;;;;;;;;;;14.46;74.47;99630.13;7362265;19;19914;-62
2023/04/23 08:41:37;;;;;;;;;;;;;;;14.47;73.90;99635.22;7361557;19;19919;-61
2023/04/23 08:44:22;;;;;;;;;;;;;;;14.46;73.03;99630.13;7357052;19;20226;-63
2023/04/23 08:47:25;;;;;;;;;;;;;;;14.47;74.54;99624.63;7356771;19;19939;-61
2023/04/23 08:49:59;;;;;;;;;;;;;;;14.50;74.71;99620.75;7360238;19;21490;-61
2023/04/23 08:52:48;;;;;;;;;;;;;;;14.53;75.51;99622.97;7357222;19;19922;-62
2023/04/23 08:55:27;;;;;;;;;;;;;;;14.54;74.66;99620.13;7357996;19;19927;-61
2023/04/23 08:58:17;;;;;;;;;;;;;;;14.53;74.34;99623.78;7356729;19;19923;-63
2023/04/23 09:00:53;;;;;;;;;;;;;;;14.49;74.08;99614.63;7354042;19;19926;-63
2023/04/23 09:03:23;;;;;;;;;;;;;;;14.51;74.48;99625.03;7359868;19;19926;-63
2023/04/23 09:05:51;;;;;;;;;;;;;;;14.53;75.42;99615.84;7359581;19;19926;-62
2023/04/23 09:08:20;;;;;;;;;;;;;;;14.62;75.61;99610.34;7359613;19;19915;-64
2023/04/23 09:10:47;;;;;;;;;;;;;;;14.71;75.75;99611.72;7358123;19;19923;-63
2023/04/23 09:13:14;;;;;;;;;;;;;;;14.76;75.76;99612.72;7355432;19;20555;-62
2023/04/23 09:15:42;;;;;;;;;;;;;;;14.79;74.56;99606.16;7348689;19;19923;-61
2023/04/23 09:18:09;;;;;;;;;;;;;;;14.76;73.43;99601.31;7352246;19;20620;-62
2023/04/23 09:20:36;;;;;;;;;;;;;;;14.71;72.71;99609.88;7352170;19;19922;-61
2023/04/23 09:23:06;;;;;;;;;;;;;;;14.69;73.31;99606.63;7352537;19;20494;-63
2023/04/23 09:25:35;;;;;;;;;;;;;;;14.69;73.75;99606.63;7356086;19;21066;-62
2023/04/23 09:28:06;;;;;;;;;;;;;;;14.74;74.64;99603.34;7352884;19;20337;-62
2023/04/23 09:30:37;;;;;;;;;;;;;;;14.74;74.69;99606.81;7356659;19;19926;-62
2023/04/23 09:33:04;;;;;;;;;;;;;;;14.73;73.98;99599.88;7356947;19;20407;-60
2023/04/23 09:35:34;;;;;;;;;;;;;;;14.74;74.64;99606.00;7355687;19;19911;-61
2023/04/23 09:38:06;;;;;;;;;;;;;;;14.78;76.24;99602.72;7355999;19;19935;-61
2023/04/23 09:40:33;;;;;;;;;;;;;;;14.79;75.41;99596.41;7358328;19;19953;-61
2023/04/23 09:43:02;;;;;;;;;;;;;;;14.81;76.00;99604.13;7362439;19;19922;-60
2023/04/23 09:45:29;;;;;;;;;;;;;;;14.84;76.43;99601.06;7357430;19;19929;-63
2023/04/23 09:47:57;;;;;;;;;;;;;;;14.85;75.80;99600.03;7357558;19;20197;-63
2023/04/23 09:50:33;;;;;;;;;;;;;;;14.76;75.26;99599.47;7356321;19;19953;-62
2023/04/23 09:53:00;;;;;;;;;;;;;;;14.78;75.40;99600.06;7356125;19;19919;-60
2023/04/23 09:55:29;;;;;;;;;;;;;;;14.77;75.54;99598.47;7359341;19;19919;-62
2023/04/23 09:57:57;;;;;;;;;;;;;;;14.78;75.64;99601.94;7356929;19;20303;-62
2023/04/23 10:00:28;;;;;;;;;;;;;;;14.76;76.27;99594.19;7353756;19;19929;-63
2023/04/23 10:02:55;;;;;;;;;;;;;;;14.78;77.38;99592.13;7360409;19;20897;-63
2023/04/23 10:05:22;;;;;;;;;;;;;;;14.75;76.99;99592.56;7357908;19;19925;-62
2023/04/23 10:07:56;;;;;;;;;;;;;;;14.68;75.03;99591.75;7357769;19;20229;-62
2023/04/23 10:10:23;;;;;;;;;;;;;;;14.62;75.41;99586.50;7358100;19;20298;-63
2023/04/23 10:12:53;;;;;;;;;;;;;;;14.58;75.89;99593.25;7355740;19;19935;-62
2023/04/23 10:15:22;;;;;;;;;;;;;;;14.54;76.28;99587.53;7350421;19;19923;-63
2023/04/23 10:17:49;;;;;;;;;;;;;;;14.59;77.89;99582.44;7353564;19;19918;-62
2023/04/23 10:20:19;;;;;;;;;;;;;;;14.63;78.28;99586.28;7357560;19;19915;-62
2023/04/23 10:22:47;;;;;;;;;;;;;;;14.66;77.85;99585.88;7364613;19;19925;-62
2023/04/23 10:25:14;;;;;;;;;;;;;;;14.68;78.09;99583.81;7365531;19;20557;-61
2023/04/23 10:27:42;;;;;;;;;;;;;;;14.69;77.12;99582.78;7364104;19;20427;-62
2023/04/23 10:30:19;;;;;;;;;;;;;;;14.69;77.42;99582.78;7361233;19;19963;-61
2023/04/23 10:32:47;;;;;;;;;;;;;;;14.72;78.12;99573.63;7364511;19;19919;-61
2023/04/23 10:35:14;;;;;;;;;;;;;;;14.72;75.86;99569.16;7368280;19;19919;-63
2023/04/23 10:37:43;;;;;;;;;;;;;;;14.79;76.25;99574.41;7364926;19;20332;-62
2023/04/23 10:40:12;;;;;;;;;;;;;;;14.85;75.68;99571.72;7363061;19;19919;-62
2023/04/23 10:42:41;;;;;;;;;;;;;;;14.92;75.58;99575.16;7365647;19;19921;-62
2023/04/23 10:45:12;;;;;;;;;;;;;;;14.98;75.18;99574.28;7363780;19;19925;-60
2023/04/23 10:47:49;;;;;;;;;;;;;;;15.01;74.52;99573.06;7363362;19;19922;-62
2023/04/23 10:50:19;;;;;;;;;;;;;;;14.96;71.67;99567.59;7364647;19;20337;-62
2023/04/23 10:52:50;;;;;;;;;;;;;;;15.01;73.25;99566.94;7360738;19;19939;-62
2023/04/23 10:55:18;;;;;;;;;;;;;;;15.05;72.40;99568.97;7363582;19;20325;-66
2023/04/23 10:57:54;;;;;;;;;;;;;;;15.05;72.68;99562.84;7360987;19;20435;-62
2023/04/23 11:00:21;;;;;;;;;;;;;;;15.04;73.11;99564.69;7357056;19;19927;-63
2023/04/23 11:02:49;;;;;;;;;;;;;;;15.13;75.11;99563.44;7364919;19;19937;-60
2023/04/23 11:05:17;;;;;;;;;;;;;;;15.18;75.08;99560.94;7349142;19;20356;-62
2023/04/23 11:07:53;;;;;;;;;;;;;;;15.20;72.41;99566.00;7348255;19;19948;-62
2023/04/23 11:10:20;;;;;;;;;;;;;;;15.23;71.82;99568.25;7356069;19;20244;-62
2023/04/23 11:12:47;;;;;;;;;;;;;;;15.26;71.61;99559.88;7357520;19;20015;-62
2023/04/23 11:15:15;;;;;;;;;;;;;;;15.27;72.32;99557.00;7354117;19;20368;-61
2023/04/23 11:17:42;;;;;;;;;;;;;;;15.30;73.34;99561.06;7359941;19;19939;-61
2023/04/23 11:20:12;;;;;;;;;;;;;;;15.26;72.56;99563.31;7348065;19;20290;-63
2023/04/23 11:22:41;;;;;;;;;;;;;;;15.20;72.19;99564.19;7359042;19;20018;-60
2023/04/23 11:25:09;;;;;;;;;;;;;;;15.18;73.83;99557.47;7356553;19;20582;-63
2023/04/23 11:27:37;;;;;;;;;;;;;;;15.19;76.03;99559.09;7355004;19;19965;-63
2023/04/23 11:30:09;;;;;;;;;;;;;;;15.23;77.16;99555.00;7354595;19;19939;-61
2023/04/23 11:32:36;;;;;;;;;;;;;;;15.19;76.35;99551.13;7355046;19;20002;-62
2023/04/23 11:35:04;;;;;;;;;;;;;;;15.17;75.81;99555.84;7352163;19;21050;-63
2023/04/23 11:37:31;;;;;;;;;;;;;;;15.19;77.49;99554.59;7357626;19;19923;-60
2023/04/23 11:40:05;;;;;;;;;;;;;;;15.21;78.21;99551.75;7355216;19;19926;-67
2023/04/23 11:42:39;;;;;;;;;;;;;;;15.18;78.38;99550.34;7355973;19;20011;-60
2023/04/23 11:45:06;;;;;;;;;;;;;;;15.15;77.56;99550.75;7350539;19;20336;-62
2023/04/23 11:47:33;;;;;;;;;;;;;;;15.24;80.76;99553.94;7356616;19;20563;-62
2023/04/23 11:50:00;;;;;;;;;;;;;;;15.31;80.87;99554.72;7353223;19;19919;-61
2023/04/23 11:52:27;;;;;;;;;;;;;;;15.41;81.46;99552.41;7345012;19;20559;-68
2023/04/23 11:54:55;;;;;;;;;;;;;;;15.48;79.40;99555.03;7349820;19;20977;-64
2023/04/23 11:57:21;;;;;;;;;;;;;;;15.54;79.77;99557.66;7354658;19;19954;-64
2023/04/23 11:59:52;;;;;;;;;;;;;;;15.54;77.09;99562.16;7355030;19;19922;-65
2023/04/23 12:02:23;;;;;;;;;;;;;;;15.50;75.35;99556.41;7355656;19;20511;-65
2023/04/23 12:04:50;;;;;;;;;;;;;;;15.46;76.55;99560.53;7351703;19;19924;-66
2023/04/23 12:07:17;;;;;;;;;;;;;;;15.41;77.09;99563.00;7356163;19;20385;-65
2023/04/23 12:09:56;;;;;;;;;;;;;;;15.36;77.98;99560.19;7355870;19;19957;-64
2023/04/23 12:12:31;;;;;;;;;;;;;;;15.31;77.93;99555.53;7356602;19;19958;-65
2023/04/23 12:15:06;;;;;;;;;;;;;;;15.23;77.47;99547.88;7348862;19;20017;-69
2023/04/23 12:17:33;;;;;;;;;;;;;;;15.18;77.39;99560.13;7354966;19;19925;-64
2023/04/23 12:20:03;;;;;;;;;;;;;;;15.14;77.71;99559.72;7358609;19;19933;-65
2023/04/23 12:22:30;;;;;;;;;;;;;;;15.09;78.29;99558.75;7358183;19;19922;-64
2023/04/23 12:24:59;;;;;;;;;;;;;;;14.97;77.93;99559.44;7356203;19;21562;-65
2023/04/23 12:27:27;;;;;;;;;;;;;;;14.84;77.90;99556.03;7355095;19;19992;-64
2023/04/23 12:30:01;;;;;;;;;;;;;;;14.84;80.95;99548.91;7354197;19;20293;-65
2023/04/23 12:32:33;;;;;;;;;;;;;;;14.86;82.85;99554.81;7358658;19;19919;-64
2023/04/23 12:35:04;;;;;;;;;;;;;;;14.87;83.28;99551.16;7357742;19;19930;-64
2023/04/23 12:37:34;;;;;;;;;;;;;;;14.90;83.46;99552.53;7356754;19;19918;-66
2023/04/23 12:40:01;;;;;;;;;;;;;;;14.98;84.93;99550.44;7354719;19;19986;-64
2023/04/23 12:42:29;;;;;;;;;;;;;;;15.06;85.27;99553.88;7359059;19;20784;-64
2023/04/23 12:45:03;;;;;;;;;;;;;;;15.13;84.52;99563.44;7356928;19;19932;-65
2023/04/23 12:47:30;;;;;;;;;;;;;;;15.13;82.53;99555.47;7356980;19;19923;-64
2023/04/23 12:50:00;;;;;;;;;;;;;;;15.20;83.68;99556.22;7356982;19;20368;-64
2023/04/23 12:52:27;;;;;;;;;;;;;;;15.24;82.06;99559.25;7362179;19;19932;-64
2023/04/23 12:54:56;;;;;;;;;;;;;;;15.19;80.46;99557.25;7354516;19;19915;-64
2023/04/23 12:57:23;;;;;;;;;;;;;;;15.05;78.52;99557.56;7357993;19;19923;-64